Terminal Aerodrome Forecast
Issued by NWS Twin Cities, MN

Home | Current Version | Previous Version | Graphics & Text | Print | Product List | Glossary On
Versions: 1 2 3 4 5 6 7 8 9 10 11 12 13 14 15 16 17 18 19 20 21 22 23 24 25 26
000
FTUS43 KMPX 292000 AAB
TAFMSP
TAF AMD
KMSP 292053Z 2921/3024 02010KT P6SM OVC022
     FM300000 03009KT P6SM SCT020 BKN030
     FM300300 05007KT P6SM SCT030
     FM300900 09007KT P6SM SCT012
     FM301600 10010KT P6SM SCT030 SCT250=

USA.gov is the U.S. government's official web portal to all federal, state and local government web resources and services.